Time;durP1;ratioP1;P1;durP2;ratioP2;P2;SDS_P1;SDS_P2;PMS_P1;PMS_P2;Temp;Humidity;BMP_temperature;BMP_pressure;BME280_temperature;BME280_humidity;BME280_pressure;Samples;Min_cycle;Max_cycle;Signal;HPM_P1;HPM_P2
2023/01/15 00:01:48;;;;;;;4.18;0.50;;;6.40;99.90;;;;;;7405870;19;19919;-82
2023/01/15 00:04:17;;;;;;;3.28;0.82;;;6.50;99.90;;;;;;7405791;19;19934;-82
2023/01/15 00:06:46;;;;;;;4.85;0.63;;;6.00;99.90;;;;;;7407192;19;20363;-82
2023/01/15 00:09:17;;;;;;;2.67;0.60;;;5.40;99.90;;;;;;7405240;19;19919;-82
2023/01/15 00:11:49;;;;;;;6.47;0.90;;;5.40;99.90;;;;;;7406210;19;19941;-82
2023/01/15 00:14:18;;;;;;;9.40;1.58;;;5.50;99.90;;;;;;7405165;19;19929;-82
2023/01/15 00:16:47;;;;;;;6.07;1.20;;;5.40;99.90;;;;;;7407033;19;19935;-82
2023/01/15 00:19:22;;;;;;;8.93;1.17;;;5.40;99.90;;;;;;7406776;19;19914;-82
2023/01/15 00:21:52;;;;;;;4.07;1.00;;;5.40;99.90;;;;;;7405445;19;19915;-81
2023/01/15 00:29:48;;;;;;;1.70;0.52;;;5.50;99.90;;;;;;7404996;19;19947;-81
2023/01/15 00:32:18;;;;;;;8.50;1.08;;;5.40;99.90;;;;;;7404130;19;19941;-82
2023/01/15 00:34:47;;;;;;;3.42;1.10;;;5.40;99.90;;;;;;7403484;19;20478;-81
2023/01/15 00:37:16;;;;;;;9.98;2.20;;;5.50;99.90;;;;;;7405155;19;20351;-81
2023/01/15 00:39:45;;;;;;;5.97;1.67;;;5.60;99.90;;;;;;7404627;19;19914;-82
2023/01/15 00:42:17;;;;;;;7.03;0.90;;;5.30;99.90;;;;;;7405599;19;19914;-81
2023/01/15 00:44:47;;;;;;;6.50;1.40;;;5.40;99.90;;;;;;7406486;19;19937;-81
2023/01/15 00:47:16;;;;;;;5.75;0.70;;;6.40;99.90;;;;;;7408422;19;19919;-80
2023/01/15 00:49:45;;;;;;;5.25;0.63;;;5.40;99.90;;;;;;7406279;19;19959;-82
2023/01/15 00:52:15;;;;;;;5.65;1.00;;;6.00;99.90;;;;;;7405536;19;20302;-81
2023/01/15 00:54:44;;;;;;;4.22;1.02;;;5.40;99.90;;;;;;7402877;19;19925;-81
2023/01/15 00:57:15;;;;;;;8.18;0.93;;;5.50;99.90;;;;;;7409410;19;19982;-81
2023/01/15 00:59:44;;;;;;;3.38;0.85;;;5.30;99.90;;;;;;7408049;19;19934;-81
2023/01/15 01:02:13;;;;;;;1.40;0.60;;;5.20;99.90;;;;;;7407768;19;20312;-82
2023/01/15 01:04:42;;;;;;;6.15;0.88;;;5.30;99.90;;;;;;7408273;19;20261;-82
2023/01/15 01:07:12;;;;;;;6.47;1.00;;;5.40;99.90;;;;;;7410933;19;20407;-81
2023/01/15 01:09:41;;;;;;;4.20;0.60;;;5.30;99.90;;;;;;7404370;19;19911;-82
2023/01/15 01:12:10;;;;;;;4.05;1.00;;;5.70;99.90;;;;;;7404115;19;19918;-82
2023/01/15 01:14:42;;;;;;;5.13;1.13;;;5.30;99.90;;;;;;7403040;19;19918;-81
2023/01/15 01:17:11;;;;;;;3.58;0.80;;;5.30;99.90;;;;;;7404034;19;20272;-81
2023/01/15 01:19:41;;;;;;;6.78;1.02;;;5.30;99.90;;;;;;7402519;19;20557;-81
2023/01/15 01:22:10;;;;;;;6.15;0.80;;;5.50;99.90;;;;;;7401720;19;20280;-82
2023/01/15 01:24:39;;;;;;;6.88;1.95;;;6.30;99.90;;;;;;7403530;19;19914;-81
2023/01/15 01:27:12;;;;;;;5.32;0.95;;;5.20;99.90;;;;;;7403190;19;19925;-82
2023/01/15 01:29:44;;;;;;;4.30;0.73;;;5.20;99.90;;;;;;7404173;19;20245;-81
2023/01/15 01:32:13;;;;;;;8.10;2.83;;;5.20;99.90;;;;;;7401846;19;19937;-82
2023/01/15 01:34:42;;;;;;;8.68;1.15;;;5.30;99.90;;;;;;7402135;19;19918;-81
2023/01/15 01:37:11;;;;;;;7.00;0.88;;;5.20;99.90;;;;;;7403117;19;19954;-81
2023/01/15 01:39:40;;;;;;;7.47;1.23;;;5.40;99.90;;;;;;7403060;19;19918;-81
2023/01/15 01:42:14;;;;;;;8.23;1.13;;;5.20;99.90;;;;;;7403507;19;19910;-81
2023/01/15 01:45:09;;;;;;;7.85;1.17;;;5.30;99.90;;;;;;7403039;19;19911;-82
2023/01/15 01:47:38;;;;;;;9.57;1.42;;;5.30;99.90;;;;;;7403286;19;19991;-82
2023/01/15 01:50:12;;;;;;;3.58;0.60;;;5.30;99.90;;;;;;7402923;19;20300;-82
2023/01/15 01:52:45;;;;;;;6.45;0.88;;;5.30;99.90;;;;;;7403102;19;20261;-81
2023/01/15 01:55:21;;;;;;;11.05;1.10;;;5.40;99.90;;;;;;7401222;19;19930;-82
2023/01/15 01:57:53;;;;;;;10.48;1.17;;;5.20;99.90;;;;;;7402645;19;19918;-82
2023/01/15 02:00:31;;;;;;;5.43;0.88;;;5.30;99.90;;;;;;7402672;19;20223;-81
2023/01/15 02:03:10;;;;;;;6.78;1.08;;;5.20;99.90;;;;;;7402602;19;19923;-82
2023/01/15 02:05:41;;;;;;;7.30;1.67;;;5.40;99.90;;;;;;7404776;19;19930;-82
2023/01/15 02:08:10;;;;;;;4.53;1.08;;;5.30;99.90;;;;;;7401944;19;19922;-81
2023/01/15 02:10:42;;;;;;;7.15;1.10;;;6.10;99.90;;;;;;7402336;19;19918;-81
2023/01/15 02:13:16;;;;;;;6.55;1.05;;;6.10;99.90;;;;;;7402016;19;19938;-81
2023/01/15 02:15:52;;;;;;;5.00;1.00;;;5.30;99.90;;;;;;7400393;19;19940;-81
2023/01/15 02:18:27;;;;;;;5.97;1.00;;;5.30;99.90;;;;;;7401567;19;19918;-82
2023/01/15 02:21:01;;;;;;;8.68;1.00;;;5.30;99.90;;;;;;7401452;19;19926;-82
2023/01/15 02:24:12;;;;;;;3.80;1.20;;;5.70;99.90;;;;;;7401809;19;19990;-82
2023/01/15 02:27:03;;;;;;;3.63;1.05;;;5.20;99.90;;;;;;7398868;19;19988;-81
2023/01/15 02:29:41;;;;;;;6.50;1.15;;;5.40;99.90;;;;;;7401606;19;20261;-81
2023/01/15 02:32:12;;;;;;;;;;;5.20;99.90;;;;;;7406083;19;19922;-81
2023/01/15 02:34:49;;;;;;;9.13;1.55;;;5.50;99.90;;;;;;7407303;19;19914;-81
2023/01/15 02:37:23;;;;;;;8.23;1.15;;;5.20;99.90;;;;;;7408166;19;19994;-81
2023/01/15 02:39:54;;;;;;;7.68;0.98;;;5.20;99.90;;;;;;7408513;19;19915;-81
2023/01/15 02:42:27;;;;;;;6.57;0.90;;;5.20;99.90;;;;;;7408075;19;19911;-80
2023/01/15 02:45:00;;;;;;;6.22;0.88;;;5.30;99.90;;;;;;7407994;19;19926;-81
2023/01/15 02:47:34;;;;;;;6.40;0.80;;;6.20;99.90;;;;;;7407765;19;19929;-81
2023/01/15 02:50:07;;;;;;;4.55;0.63;;;5.20;99.90;;;;;;7408212;19;20371;-81
2023/01/15 02:52:40;;;;;;;5.75;1.00;;;5.10;99.90;;;;;;7408553;19;20336;-81
2023/01/15 02:55:13;;;;;;;7.65;0.70;;;5.20;99.90;;;;;;7405964;19;19954;-81
2023/01/15 02:57:48;;;;;;;7.13;1.13;;;5.10;99.90;;;;;;7407960;19;19915;-81
2023/01/15 03:00:20;;;;;;;4.70;0.95;;;5.10;99.90;;;;;;7407943;19;19923;-80
2023/01/15 03:02:52;;;;;;;6.47;0.95;;;5.00;99.90;;;;;;7407906;19;19922;-81
2023/01/15 03:05:26;;;;;;;7.47;1.20;;;5.40;99.90;;;;;;7410035;19;20247;-80
2023/01/15 03:07:58;;;;;;;9.23;1.13;;;5.80;99.90;;;;;;7407232;19;19922;-81
2023/01/15 03:10:38;;;;;;;8.45;1.17;;;5.20;99.90;;;;;;7407466;19;19915;-81
2023/01/15 03:13:17;;;;;;;3.70;0.73;;;5.00;99.90;;;;;;7406920;19;20539;-81
2023/01/15 03:18:39;;;;;;;7.10;1.52;;;6.00;99.90;;;;;;7406270;19;19915;-81
2023/01/15 03:21:12;;;;;;;8.65;2.30;;;5.10;99.90;;;;;;7406141;19;19919;-80
2023/01/15 03:23:47;;;;;;;7.43;1.20;;;5.20;99.90;;;;;;7407293;19;19942;-80
2023/01/15 03:26:16;;;;;;;8.50;0.82;;;5.50;99.90;;;;;;7405893;19;19958;-81
2023/01/15 03:28:48;;;;;;;7.25;0.93;;;5.60;99.90;;;;;;7406810;19;19934;-81
2023/01/15 03:31:18;;;;;;;10.52;1.35;;;5.20;99.90;;;;;;7405389;19;19941;-81
2023/01/15 03:33:47;;;;;;;6.82;0.85;;;6.10;99.90;;;;;;7406504;19;19922;-81
2023/01/15 03:36:16;;;;;;;6.30;0.95;;;5.20;99.90;;;;;;7404579;19;19970;-81
2023/01/15 03:38:46;;;;;;;9.18;1.25;;;5.60;99.90;;;;;;7406362;19;19918;-80
2023/01/15 03:41:21;;;;;;;5.93;1.15;;;5.50;99.90;;;;;;7406979;19;19978;-81
2023/01/15 03:43:59;;;;;;;9.57;1.67;;;5.10;99.90;;;;;;7405102;19;19918;-81
2023/01/15 03:46:51;;;;;;;5.85;1.00;;;5.00;99.90;;;;;;7406364;19;19915;-82
2023/01/15 03:49:28;;;;;;;3.53;0.90;;;5.10;99.90;;;;;;7408549;19;20334;-81
2023/01/15 03:52:03;;;;;;;15.82;1.08;;;5.10;99.90;;;;;;7409789;19;20331;-81
2023/01/15 03:54:40;;;;;;;9.85;1.75;;;5.90;99.90;;;;;;7408188;19;19929;-81
2023/01/15 03:57:16;;;;;;;7.22;1.00;;;5.60;99.90;;;;;;7409312;19;19922;-81
2023/01/15 03:59:53;;;;;;;6.90;1.05;;;5.20;99.90;;;;;;7407966;19;19933;-81
2023/01/15 04:02:23;;;;;;;7.13;0.98;;;6.00;99.90;;;;;;7405154;19;19911;-81
2023/01/15 04:04:53;;;;;;;8.23;1.17;;;6.30;99.90;;;;;;7409461;19;19918;-81
2023/01/15 04:07:23;;;;;;;7.57;1.50;;;5.90;99.90;;;;;;7406221;19;19915;-81
2023/01/15 04:09:52;;;;;;;9.55;1.40;;;4.90;99.90;;;;;;7405539;19;19921;-81
2023/01/15 04:12:21;;;;;;;8.93;1.95;;;5.00;99.90;;;;;;7405551;19;19915;-81
2023/01/15 04:14:53;;;;;;;8.95;1.40;;;5.40;99.90;;;;;;7405490;19;19935;-81
2023/01/15 04:17:22;;;;;;;7.30;1.25;;;5.10;99.90;;;;;;7405991;19;19918;-81
2023/01/15 04:19:51;;;;;;;6.32;1.10;;;5.00;99.90;;;;;;7403980;19;19919;-81
2023/01/15 04:22:21;;;;;;;7.80;1.17;;;5.00;99.90;;;;;;7403907;19;20354;-80
2023/01/15 04:24:50;;;;;;;6.95;1.48;;;5.40;99.90;;;;;;7405410;19;20328;-81
2023/01/15 04:27:19;;;;;;;7.68;1.55;;;5.00;99.90;;;;;;7404940;19;19989;-81
2023/01/15 04:29:48;;;;;;;8.60;0.90;;;5.00;99.90;;;;;;7405383;19;19918;-81
2023/01/15 04:32:19;;;;;;;7.97;1.00;;;6.20;99.90;;;;;;7402151;19;19911;-81
2023/01/15 04:34:48;;;;;;;11.90;1.30;;;6.20;99.90;;;;;;7405142;19;19923;-80
2023/01/15 04:37:19;;;;;;;5.32;1.17;;;5.10;99.90;;;;;;7405516;19;20332;-81
2023/01/15 04:39:48;;;;;;;5.18;1.20;;;6.20;99.90;;;;;;7405323;19;19918;-80
2023/01/15 04:45:00;;;;;;;7.55;1.77;;;6.20;99.90;;;;;;7404863;19;20394;-81
2023/01/15 04:47:32;;;;;;;6.40;1.60;;;5.50;99.90;;;;;;7405661;19;19923;-81
2023/01/15 04:50:01;;;;;;;;;;;4.90;99.90;;;;;;7407650;19;19918;-80
2023/01/15 04:52:30;;;;;;;8.43;1.77;;;5.10;99.90;;;;;;7404864;19;20318;-81
2023/01/15 04:54:59;;;;;;;6.60;1.20;;;4.90;99.90;;;;;;7400914;19;19922;-82
2023/01/15 04:57:29;;;;;;;3.42;0.93;;;5.80;99.90;;;;;;7404570;19;19914;-81
2023/01/15 04:59:58;;;;;;;10.75;2.05;;;5.00;99.90;;;;;;7403825;19;19982;-81
2023/01/15 05:02:27;;;;;;;4.95;1.10;;;5.30;99.90;;;;;;7404195;19;20336;-81
2023/01/15 05:04:58;;;;;;;8.90;1.48;;;5.50;99.90;;;;;;7403721;19;19925;-80
2023/01/15 05:07:27;;;;;;;5.50;0.98;;;5.40;99.90;;;;;;7404035;19;19914;-81
2023/01/15 05:09:57;;;;;;;9.00;1.08;;;5.10;99.90;;;;;;7403893;19;19911;-80
2023/01/15 05:12:26;;;;;;;9.98;2.13;;;5.80;99.90;;;;;;7403605;19;20300;-81
2023/01/15 05:14:55;;;;;;;4.10;0.90;;;4.90;99.90;;;;;;7403856;19;19982;-80
2023/01/15 05:17:24;;;;;;;9.55;1.67;;;4.90;99.90;;;;;;7403540;19;20348;-80
2023/01/15 05:20:08;;;;;;;8.32;1.98;;;4.90;99.90;;;;;;7403853;19;19915;-81
2023/01/15 05:22:37;;;;;;;9.88;1.40;;;4.90;99.90;;;;;;7402198;19;19926;-81
2023/01/15 05:25:08;;;;;;;12.35;1.52;;;5.00;99.90;;;;;;7403452;19;19938;-80
2023/01/15 05:27:37;;;;;;;10.02;1.25;;;4.80;99.90;;;;;;7403653;19;19922;-81
2023/01/15 05:30:10;;;;;;;6.82;0.95;;;4.70;99.90;;;;;;7402847;19;19923;-80
2023/01/15 05:32:39;;;;;;;5.55;1.15;;;4.70;99.90;;;;;;7401326;19;20283;-80
2023/01/15 05:35:31;;;;;;;2.33;0.68;;;5.30;99.90;;;;;;7400907;19;19944;-81
2023/01/15 05:38:19;;;;;;;12.73;1.38;;;5.50;99.90;;;;;;7401749;19;19926;-81
2023/01/15 05:40:50;;;;;;;5.13;0.75;;;4.80;99.90;;;;;;7402996;19;19930;-80
2023/01/15 05:43:19;;;;;;;9.65;0.93;;;4.70;99.90;;;;;;7403398;19;19921;-81
2023/01/15 05:45:48;;;;;;;3.58;0.82;;;5.70;99.90;;;;;;7402798;19;19914;-80
2023/01/15 05:48:17;;;;;;;12.48;1.10;;;5.50;99.90;;;;;;7402576;19;19978;-80
2023/01/15 05:50:48;;;;;;;10.68;1.70;;;5.50;99.90;;;;;;7402931;19;19918;-80
2023/01/15 05:53:17;;;;;;;11.07;1.58;;;5.40;99.90;;;;;;7402434;19;19915;-80
2023/01/15 05:55:46;;;;;;;5.97;1.45;;;4.90;99.90;;;;;;7400989;19;19922;-80
2023/01/15 05:58:16;;;;;;;10.35;1.25;;;4.60;99.90;;;;;;7402800;19;19950;-81
2023/01/15 06:00:45;;;;;;;5.72;0.80;;;5.50;99.90;;;;;;7402372;19;19963;-80
2023/01/15 06:03:20;;;;;;;4.55;0.82;;;4.70;99.90;;;;;;7405537;19;19917;-80
2023/01/15 06:05:55;;;;;;;5.80;0.90;;;5.40;99.90;;;;;;7402290;19;19937;-81
2023/01/15 06:08:25;;;;;;;6.25;1.00;;;4.60;99.90;;;;;;7409144;19;19939;-82
2023/01/15 06:10:54;;;;;;;9.38;1.13;;;3.90;99.90;;;;;;7409405;19;20005;-81
2023/01/15 06:13:23;;;;;;;5.57;1.17;;;4.70;99.90;;;;;;7408298;19;19914;-81
2023/01/15 06:15:52;;;;;;;7.35;1.05;;;4.60;99.90;;;;;;7407294;19;20391;-82
2023/01/15 06:18:21;;;;;;;4.60;1.33;;;4.90;99.90;;;;;;7408815;19;19915;-82
2023/01/15 06:20:50;;;;;;;6.97;1.63;;;5.30;99.90;;;;;;7407490;19;19933;-81
2023/01/15 06:23:23;;;;;;;7.43;1.52;;;4.60;99.90;;;;;;7408523;19;19951;-82
2023/01/15 06:25:52;;;;;;;6.70;1.10;;;4.50;99.90;;;;;;7408334;19;19910;-82
2023/01/15 06:28:20;;;;;;;5.70;1.38;;;4.80;99.90;;;;;;7408135;19;20317;-82
2023/01/15 06:30:50;;;;;;;5.35;0.88;;;4.40;99.90;;;;;;7407717;19;20298;-81
2023/01/15 06:33:19;;;;;;;6.45;1.52;;;5.10;99.90;;;;;;7408139;19;19970;-81
2023/01/15 06:35:48;;;;;;;4.45;1.00;;;4.40;99.90;;;;;;7407247;19;19922;-82
2023/01/15 06:38:24;;;;;;;10.10;2.03;;;5.50;99.90;;;;;;7408293;19;19922;-82
2023/01/15 06:40:53;;;;;;;6.07;1.20;;;4.40;99.90;;;;;;7409787;19;19918;-81
2023/01/15 06:48:48;;;;;;;6.55;1.30;;;5.10;99.90;;;;;;7408506;19;20355;-82
2023/01/15 06:51:19;;;;;;;5.32;0.60;;;4.20;99.90;;;;;;7409654;19;19915;-81
2023/01/15 06:53:51;;;;;;;11.13;1.02;;;4.30;99.90;;;;;;7407490;19;19996;-80
2023/01/15 06:56:20;;;;;;;8.65;1.48;;;4.90;99.90;;;;;;7405938;19;19915;-81
2023/01/15 06:58:49;;;;;;;9.60;1.85;;;3.90;99.90;;;;;;7407440;19;19919;-81
2023/01/15 07:01:18;;;;;;;7.82;1.10;;;4.90;99.90;;;;;;7408869;19;19922;-82
2023/01/15 07:03:47;;;;;;;6.78;1.20;;;4.30;99.90;;;;;;7407105;19;20267;-80
2023/01/15 07:06:16;;;;;;;5.35;1.13;;;4.50;99.90;;;;;;7407263;19;19919;-81
2023/01/15 07:08:45;;;;;;;4.90;0.88;;;4.40;99.90;;;;;;7407383;19;19919;-81
2023/01/15 07:11:16;;;;;;;4.70;1.65;;;5.30;99.90;;;;;;7407170;19;19911;-82
2023/01/15 07:13:45;;;;;;;5.72;1.02;;;5.30;99.90;;;;;;7407071;19;19918;-82
2023/01/15 07:18:58;;;;;;;4.32;1.27;;;4.70;99.90;;;;;;7405201;19;19918;-81
2023/01/15 07:21:27;;;;;;;6.25;1.08;;;5.20;99.90;;;;;;7405936;19;20001;-81
2023/01/15 07:24:01;;;;;;;8.32;1.20;;;4.40;99.90;;;;;;7407585;19;19926;-81
2023/01/15 07:26:32;;;;;;;6.60;1.27;;;4.20;99.90;;;;;;7405812;19;19921;-81
2023/01/15 07:29:01;;;;;;;6.68;1.15;;;4.70;99.90;;;;;;7407329;19;19919;-82
2023/01/15 07:31:30;;;;;;;8.10;0.63;;;4.30;99.90;;;;;;7405719;19;19922;-81
2023/01/15 07:34:00;;;;;;;5.72;1.02;;;4.30;99.90;;;;;;7406693;19;19915;-82
2023/01/15 07:36:29;;;;;;;8.43;1.25;;;5.30;99.90;;;;;;7405804;19;19915;-81
2023/01/15 07:38:58;;;;;;;7.95;1.38;;;4.60;99.90;;;;;;7405856;19;20332;-81
2023/01/15 07:49:47;;;;;;;8.65;1.38;;;4.20;99.90;;;;;;7405749;19;19923;-81
2023/01/15 07:52:18;;;;;;;4.88;0.90;;;4.90;99.90;;;;;;7406397;19;19982;-82
2023/01/15 07:54:51;;;;;;;5.15;1.08;;;4.90;99.90;;;;;;7405655;19;19919;-81
2023/01/15 07:57:23;;;;;;;3.13;0.75;;;3.60;99.90;;;;;;7404696;19;20293;-80
2023/01/15 07:59:56;;;;;;;6.53;1.30;;;4.10;99.90;;;;;;7406055;19;19918;-81
2023/01/15 08:02:26;;;;;;;6.57;0.90;;;3.80;99.90;;;;;;7405699;19;20391;-82
2023/01/15 08:04:55;;;;;;;12.48;1.25;;;4.20;99.90;;;;;;7406198;19;19925;-82
2023/01/15 08:07:24;;;;;;;6.88;1.27;;;4.60;99.90;;;;;;7405763;19;19950;-82
2023/01/15 08:09:53;;;;;;;6.30;1.02;;;4.20;99.90;;;;;;7405477;19;19918;-81
2023/01/15 08:15:15;;;;;;;6.80;1.10;;;4.10;99.90;;;;;;7405316;19;20357;-82
2023/01/15 08:17:46;;;;;;;3.70;0.80;;;4.10;99.90;;;;;;7404340;19;19929;-81
2023/01/15 08:20:17;;;;;;;1.98;0.70;;;4.90;99.90;;;;;;7405657;19;19921;-81
2023/01/15 08:22:46;;;;;;;8.68;0.93;;;4.90;99.90;;;;;;7403942;19;19986;-81
2023/01/15 08:25:18;;;;;;;6.38;0.80;;;3.50;99.90;;;;;;7404711;19;19926;-82
2023/01/15 08:27:49;;;;;;;6.70;0.93;;;3.70;99.90;;;;;;7405207;19;19922;-81
2023/01/15 08:30:23;;;;;;;7.60;1.48;;;3.30;99.90;;;;;;7404913;19;19938;-82
2023/01/15 08:32:53;;;;;;;7.70;1.13;;;4.30;99.90;;;;;;7402729;19;19915;-82
2023/01/15 08:35:22;;;;;;;4.05;0.80;;;5.40;99.90;;;;;;7404413;19;19911;-82
2023/01/15 08:37:50;;;;;;;10.02;1.30;;;5.10;99.90;;;;;;7403009;19;19923;-81
2023/01/15 08:40:22;;;;;;;6.45;1.30;;;3.80;99.90;;;;;;7405241;19;19919;-81
2023/01/15 08:42:51;;;;;;;7.80;1.05;;;4.70;99.90;;;;;;7404387;19;20279;-81
2023/01/15 08:45:22;;;;;;;6.65;1.67;;;3.60;99.90;;;;;;7404200;19;20328;-81
2023/01/15 08:47:59;;;;;;;8.68;1.35;;;4.20;99.90;;;;;;7403992;19;19918;-81
2023/01/15 08:50:29;;;;;;;4.32;0.80;;;3.80;99.90;;;;;;7403848;19;19918;-81
2023/01/15 08:53:04;;;;;;;2.30;0.40;;;4.60;99.90;;;;;;7404187;19;19914;-81
2023/01/15 08:55:35;;;;;;;7.10;1.17;;;4.40;99.90;;;;;;7403997;19;19918;-81
2023/01/15 08:58:05;;;;;;;7.38;1.02;;;4.40;99.90;;;;;;7402888;19;19915;-81
2023/01/15 09:00:36;;;;;;;7.05;0.80;;;4.60;99.90;;;;;;7407412;19;19922;-81
2023/01/15 09:03:06;;;;;;;2.40;0.93;;;5.30;99.90;;;;;;7404030;19;19923;-81
2023/01/15 09:05:35;;;;;;;4.88;1.00;;;4.60;99.90;;;;;;7404288;19;19986;-81
2023/01/15 09:08:04;;;;;;;8.45;0.80;;;5.10;99.90;;;;;;7403656;19;19947;-81
2023/01/15 09:10:37;;;;;;;8.68;1.33;;;4.60;99.90;;;;;;7403365;19;19915;-81
2023/01/15 09:13:07;;;;;;;9.05;1.50;;;5.10;99.90;;;;;;7404086;19;19949;-81
2023/01/15 09:15:38;;;;;;;5.25;1.15;;;4.90;99.90;;;;;;7403922;19;19922;-81
2023/01/15 09:18:09;;;;;;;8.50;1.48;;;5.10;99.90;;;;;;7402328;19;19918;-81
2023/01/15 09:20:38;;;;;;;5.32;1.05;;;4.30;99.90;;;;;;7403112;19;19929;-81
2023/01/15 09:23:18;;;;;;;10.57;1.05;;;5.50;99.90;;;;;;7403306;19;19930;-82
2023/01/15 09:26:00;;;;;;;8.82;1.15;;;4.20;99.90;;;;;;7403030;19;19914;-81
2023/01/15 09:28:30;;;;;;;4.22;1.10;;;4.10;99.90;;;;;;7403294;19;19915;-82
2023/01/15 09:31:01;;;;;;;5.03;1.08;;;3.60;99.90;;;;;;7403596;19;19911;-81
2023/01/15 09:33:30;;;;;;;3.75;0.75;;;4.40;99.90;;;;;;7406223;19;19978;-82
2023/01/15 09:35:59;;;;;;;3.25;0.88;;;3.90;99.90;;;;;;7404135;19;19923;-82
2023/01/15 09:38:29;;;;;;;9.70;1.35;;;4.00;99.90;;;;;;7403414;19;19918;-82
2023/01/15 09:41:02;;;;;;;5.03;0.93;;;4.80;99.90;;;;;;7403740;19;19970;-82
2023/01/15 09:43:42;;;;;;;6.10;0.80;;;3.10;99.90;;;;;;7403771;19;19919;-81
2023/01/15 09:46:19;;;;;;;6.50;1.20;;;3.50;99.90;;;;;;7402284;19;19986;-82
2023/01/15 09:49:03;;;;;;;4.53;0.80;;;4.80;99.90;;;;;;7402201;19;20259;-82
2023/01/15 09:51:40;;;;;;;5.43;0.90;;;3.90;99.90;;;;;;7402191;19;20494;-82
2023/01/15 09:54:22;;;;;;;11.95;2.03;;;3.40;99.90;;;;;;7402553;19;19911;-82
2023/01/15 09:56:51;;;;;;;5.22;0.75;;;3.10;99.90;;;;;;7401280;19;20335;-83
2023/01/15 09:59:27;;;;;;;4.05;0.55;;;4.00;99.90;;;;;;7404740;19;20426;-82
2023/01/15 10:02:13;;;;;;;5.40;1.20;;;3.70;99.90;;;;;;7402350;19;19915;-82
2023/01/15 10:04:47;;;;;;;1.02;0.50;;;2.80;99.90;;;;;;7401772;19;19925;-82
2023/01/15 10:07:24;;;;;;;5.07;0.82;;;4.30;99.90;;;;;;7402243;19;19918;-83
2023/01/15 10:09:59;;;;;;;4.28;0.50;;;2.80;99.90;;;;;;7402778;19;19931;-82
2023/01/15 10:12:39;;;;;;;4.75;1.30;;;4.30;99.90;;;;;;7401644;19;20251;-82
2023/01/15 10:15:26;;;;;;;1.23;0.40;;;3.00;99.90;;;;;;7401313;19;19929;-82
2023/01/15 10:18:00;;;;;;;4.18;0.70;;;3.80;99.90;;;;;;7400497;19;19918;-82
2023/01/15 10:21:10;;;;;;;4.40;0.68;;;4.70;99.90;;;;;;7401733;19;19934;-82
2023/01/15 10:23:47;;;;;;;3.72;0.60;;;3.70;99.90;;;;;;7400460;19;19919;-81
2023/01/15 10:26:25;;;;;;;4.05;0.85;;;3.80;99.90;;;;;;7400660;19;19914;-82
2023/01/15 10:29:05;;;;;;;4.18;0.55;;;3.70;99.90;;;;;;7401344;19;20335;-82
2023/01/15 10:31:53;;;;;;;6.30;0.93;;;4.00;99.90;;;;;;7399976;19;19941;-82
2023/01/15 10:35:18;;;;;;;3.88;0.93;;;4.00;99.90;;;;;;7401177;19;20363;-82
2023/01/15 10:37:53;;;;;;;5.15;1.10;;;4.00;99.90;;;;;;7400093;19;19915;-82
2023/01/15 10:40:39;;;;;;;5.30;1.27;;;4.00;99.90;;;;;;7400483;19;20340;-82
2023/01/15 10:43:16;;;;;;;5.57;1.05;;;4.00;99.90;;;;;;7400536;19;20317;-82
2023/01/15 10:45:49;;;;;;;2.30;0.68;;;3.60;99.90;;;;;;7400430;19;19915;-80
2023/01/15 10:48:27;;;;;;;2.97;0.77;;;4.80;99.90;;;;;;7400688;19;19932;-82
2023/01/15 10:50:59;;;;;;;;;;;4.30;99.90;;;;;;7402842;19;19918;-82
2023/01/15 10:53:34;;;;;;;4.70;0.77;;;4.20;99.90;;;;;;7402533;19;20252;-80
2023/01/15 10:56:11;;;;;;;3.25;0.60;;;4.80;99.90;;;;;;7406883;19;19938;-81
2023/01/15 10:58:45;;;;;;;2.28;0.43;;;5.20;99.90;;;;;;7408526;19;19941;-81
2023/01/15 11:01:18;;;;;;;8.20;1.00;;;4.20;99.90;;;;;;7406652;19;19922;-80
2023/01/15 11:03:47;;;;;;;4.05;1.08;;;4.30;99.90;;;;;;7407511;19;19914;-80
2023/01/15 11:06:21;;;;;;;3.03;0.60;;;5.30;99.90;;;;;;7407402;19;20336;-81
2023/01/15 11:08:53;;;;;;;3.10;0.90;;;4.90;99.90;;;;;;7407261;19;19914;-81
2023/01/15 11:19:58;;;;;;;3.80;0.77;;;4.30;99.90;;;;;;7406394;19;19914;-80
2023/01/15 11:22:29;;;;;;;5.05;1.58;;;4.10;99.90;;;;;;7405067;19;19923;-81
2023/01/15 11:25:02;;;;;;;8.90;0.88;;;4.20;99.90;;;;;;7405841;19;19950;-80
2023/01/15 11:27:35;;;;;;;5.28;0.77;;;4.30;99.90;;;;;;7406486;19;20339;-80
2023/01/15 11:30:06;;;;;;;4.75;1.10;;;4.20;99.90;;;;;;7406658;19;20338;-80
2023/01/15 11:32:38;;;;;;;4.97;0.77;;;4.10;99.90;;;;;;7403850;19;20277;-80
2023/01/15 11:35:17;;;;;;;;;;;5.20;99.90;;;;;;7409185;19;20272;-80
2023/01/15 11:37:48;;;;;;;6.63;0.80;;;4.10;99.90;;;;;;7404847;19;19927;-80
2023/01/15 11:40:19;;;;;;;5.07;0.75;;;4.20;99.90;;;;;;7406623;19;19926;-80
2023/01/15 11:51:05;;;;;;;7.95;1.10;;;4.70;99.90;;;;;;7405850;19;20287;-80
2023/01/15 11:53:43;;;;;;;5.10;0.90;;;4.70;99.90;;;;;;7405836;19;19925;-79
2023/01/15 11:56:13;;;;;;;;;;;4.70;99.90;;;;;;7407926;19;19976;-80
2023/01/15 11:58:46;;;;;;;5.82;0.80;;;5.00;99.90;;;;;;7403869;19;19922;-80
2023/01/15 12:01:17;;;;;;;8.10;1.35;;;5.10;99.90;;;;;;7405381;19;19914;-80
2023/01/15 12:03:46;;;;;;;7.75;1.17;;;5.30;99.90;;;;;;7404607;19;19922;-80
2023/01/15 12:06:16;;;;;;;6.75;1.33;;;4.70;99.90;;;;;;7405193;19;19918;-80
2023/01/15 12:08:54;;;;;;;7.57;1.70;;;5.30;99.90;;;;;;7404865;19;19926;-80
2023/01/15 12:11:48;;;;;;;6.40;0.75;;;5.10;99.90;;;;;;7405558;19;19911;-79
2023/01/15 12:14:47;;;;;;;8.55;1.38;;;5.00;99.90;;;;;;7405173;19;19911;-80
2023/01/15 12:17:30;;;;;;;7.18;0.98;;;6.10;99.90;;;;;;7405119;19;19914;-79
2023/01/15 12:20:12;;;;;;;9.20;1.42;;;5.10;99.90;;;;;;7405368;19;19946;-80
2023/01/15 12:22:58;;;;;;;6.47;0.85;;;5.80;99.90;;;;;;7405310;19;19930;-80
2023/01/15 12:25:50;;;;;;;6.55;0.90;;;5.10;99.90;;;;;;7405205;19;19926;-79
2023/01/15 12:28:26;;;;;;;7.30;1.20;;;5.40;99.90;;;;;;7405951;19;19922;-80
2023/01/15 12:31:02;;;;;;;8.45;2.05;;;5.20;99.90;;;;;;7405151;19;19919;-79
2023/01/15 12:33:42;;;;;;;4.88;0.80;;;5.70;99.90;;;;;;7404890;19;19939;-80
2023/01/15 12:36:18;;;;;;;9.40;1.60;;;5.30;99.90;;;;;;7405234;19;19948;-81
2023/01/15 12:38:54;;;;;;;7.18;0.98;;;4.90;99.90;;;;;;7403242;19;19928;-82
2023/01/15 12:44:59;;;;;;;11.07;1.08;;;5.60;99.90;;;;;;7404968;19;19910;-81
2023/01/15 12:47:20;;;;;;;9.25;1.58;;;5.20;99.90;;;;;;7403776;19;19925;-78
2023/01/15 12:49:54;;;;;;;5.25;1.35;;;5.20;99.90;;;;;;7404323;19;19918;-80
2023/01/15 12:52:28;;;;;;;6.57;1.15;;;5.40;99.90;;;;;;7404043;19;19973;-80
2023/01/15 12:55:04;;;;;;;7.13;0.93;;;6.20;99.90;;;;;;7403511;19;20244;-80
2023/01/15 12:57:39;;;;;;;9.18;2.22;;;5.10;99.90;;;;;;7403563;19;19914;-81
2023/01/15 13:00:15;;;;;;;7.40;0.90;;;5.20;99.90;;;;;;7404056;19;19918;-79
2023/01/15 13:02:59;;;;;;;8.80;1.50;;;5.30;99.90;;;;;;7404100;19;19922;-79
2023/01/15 13:05:32;;;;;;;6.32;1.35;;;5.00;99.90;;;;;;7403942;19;20391;-79
2023/01/15 13:08:08;;;;;;;7.63;1.60;;;5.10;99.90;;;;;;7403320;19;19927;-79
2023/01/15 13:10:42;;;;;;;5.75;1.90;;;5.50;99.90;;;;;;7403582;19;19970;-79
2023/01/15 13:13:21;;;;;;;7.00;4.18;;;4.80;99.90;;;;;;7403621;19;20334;-79
2023/01/15 13:16:11;;;;;;;6.35;1.05;;;6.00;99.90;;;;;;7401427;19;19911;-79
2023/01/15 13:18:54;;;;;;;7.75;1.50;;;4.90;99.90;;;;;;7402164;19;19927;-81
2023/01/15 13:21:29;;;;;;;4.00;1.48;;;5.30;99.90;;;;;;7402808;19;20271;-81
2023/01/15 13:24:20;;;;;;;12.35;1.30;;;5.20;99.90;;;;;;7403531;19;19911;-80
2023/01/15 13:27:05;;;;;;;5.18;0.90;;;4.90;99.90;;;;;;7402544;19;19946;-80
2023/01/15 13:29:48;;;;;;;3.67;1.23;;;5.20;99.90;;;;;;7403212;19;19942;-81
2023/01/15 13:32:21;;;;;;;3.58;1.05;;;3.30;99.90;;;;;;7401818;19;19915;-81
2023/01/15 13:34:54;;;;;;;2.03;0.75;;;4.40;99.90;;;;;;7402473;19;20478;-83
2023/01/15 13:37:29;;;;;;;4.28;0.77;;;3.10;99.90;;;;;;7402334;19;19930;-83
2023/01/15 13:40:04;;;;;;;1.55;0.60;;;3.00;99.90;;;;;;7403010;19;19914;-84
2023/01/15 13:42:40;;;;;;;3.35;0.40;;;3.60;99.90;;;;;;7403872;19;20367;-83
2023/01/15 13:45:36;;;;;;;4.72;0.60;;;4.40;99.90;;;;;;7402608;19;19953;-83
2023/01/15 13:48:09;;;;;;;2.15;0.43;;;4.50;99.90;;;;;;7402382;19;19919;-82
2023/01/15 13:50:43;;;;;;;5.43;0.63;;;4.10;99.90;;;;;;7402050;19;19918;-82
2023/01/15 13:53:24;;;;;;;3.53;0.50;;;3.00;99.90;;;;;;7402218;19;19932;-83
2023/01/15 13:55:55;;;;;;;4.55;0.38;;;2.70;99.90;;;;;;7405697;19;19907;-83
2023/01/15 13:58:27;;;;;;;2.45;0.60;;;3.60;99.90;;;;;;7401441;19;19936;-83
2023/01/15 14:01:08;;;;;;;4.22;0.47;;;3.90;99.90;;;;;;7401840;19;19937;-82
2023/01/15 14:03:39;;;;;;;2.97;0.50;;;2.80;99.90;;;;;;7402199;19;20002;-83
2023/01/15 14:06:09;;;;;;;2.13;0.55;;;3.10;99.90;;;;;;7401869;19;19934;-83
2023/01/15 14:08:41;;;;;;;4.18;0.43;;;3.20;99.90;;;;;;7401472;19;19922;-84
2023/01/15 14:11:47;;;;;;;2.17;0.50;;;4.60;99.90;;;;;;7401874;19;20352;-82
2023/01/15 14:14:49;;;;;;;0.70;0.30;;;3.30;99.90;;;;;;7401282;19;20339;-83
2023/01/15 14:17:41;;;;;;;2.08;0.30;;;3.80;99.90;;;;;;7398296;19;19970;-84
2023/01/15 14:20:36;;;;;;;3.97;0.57;;;3.50;99.90;;;;;;7401552;19;19918;-84
2023/01/15 14:23:18;;;;;;;4.68;0.65;;;3.40;99.90;;;;;;7399726;19;19921;-84